Time;durP1;ratioP1;P1;durP2;ratioP2;P2;SDS_P1;SDS_P2;PMS_P1;PMS_P2;Temp;Humidity;BMP_temperature;BMP_pressure;BME280_temperature;BME280_humidity;BME280_pressure;Samples;Min_cycle;Max_cycle;Signal;HPM_P1;HPM_P2
2023/05/13 00:01:30;;;;;;;;;;;12.50;69.30;;;;;;5033726;28;87613;-41
2023/05/13 00:03:55;;;;;;;;;;;12.50;69.40;;;;;;5032829;28;88153;-41
2023/05/13 00:06:21;;;;;;;;;;;12.50;69.40;;;;;;5035325;28;87083;-40
2023/05/13 00:08:46;;;;;;;;;;;12.50;69.40;;;;;;5034193;28;87054;-41
2023/05/13 00:11:12;;;;;;;;;;;12.50;69.40;;;;;;5031623;28;89768;-41
2023/05/13 00:13:37;;;;;;;;;;;12.50;69.30;;;;;;5034724;28;87206;-42
2023/05/13 00:16:03;;;;;;;;;;;12.40;69.40;;;;;;5034271;28;87494;-41
2023/05/13 00:18:28;;;;;;;;;;;12.40;69.40;;;;;;5035148;28;88050;-40
2023/05/13 00:20:55;;;;;;;;;;;12.40;69.30;;;;;;5034493;28;87458;-42
2023/05/13 00:23:20;;;;;;;;;;;12.40;69.40;;;;;;5034831;28;88490;-41
2023/05/13 00:25:46;;;;;;;;;;;12.40;69.40;;;;;;5032992;28;87490;-41
2023/05/13 00:28:13;;;;;;;;;;;12.40;69.40;;;;;;5033397;27;87227;-42
2023/05/13 00:30:44;;;;;;;;;;;12.40;69.40;;;;;;5034331;28;88824;-41
2023/05/13 00:33:10;;;;;;;;;;;12.40;69.40;;;;;;5034447;28;87018;-41
2023/05/13 00:35:35;;;;;;;;;;;12.40;69.50;;;;;;5031707;27;89279;-40
2023/05/13 00:38:01;;;;;;;;;;;12.40;69.50;;;;;;5033553;28;88234;-41
2023/05/13 00:40:26;;;;;;;;;;;12.40;69.50;;;;;;5037755;28;86982;-41
2023/05/13 00:42:54;;;;;;;;;;;12.30;69.50;;;;;;5032618;28;88028;-41
2023/05/13 00:45:19;;;;;;;;;;;12.40;69.60;;;;;;5032800;28;87082;-42
2023/05/13 00:47:46;;;;;;;;;;;12.30;69.50;;;;;;5034620;28;87245;-41
2023/05/13 00:50:12;;;;;;;;;;;12.30;69.50;;;;;;5033231;28;87272;-41
2023/05/13 00:52:38;;;;;;;;;;;12.30;69.40;;;;;;5032854;28;86389;-41
2023/05/13 00:55:04;;;;;;;;;;;12.40;69.60;;;;;;5034117;28;87012;-41
2023/05/13 00:57:30;;;;;;;;;;;12.30;69.50;;;;;;5034161;28;88279;-41
2023/05/13 00:59:55;;;;;;;;;;;12.30;69.40;;;;;;5031690;28;88083;-41
2023/05/13 01:02:30;;;;;;;;;;;12.30;69.40;;;;;;5035419;28;88193;-41
2023/05/13 01:04:55;;;;;;;;;;;12.30;69.40;;;;;;5028595;28;87175;-41
2023/05/13 01:07:21;;;;;;;;;;;12.30;69.50;;;;;;5032753;28;87273;-41
2023/05/13 01:09:58;;;;;;;;;;;12.30;69.40;;;;;;5034202;28;88028;-41
2023/05/13 01:12:30;;;;;;;;;;;12.30;69.50;;;;;;5034318;28;87212;-41
2023/05/13 01:15:03;;;;;;;;;;;12.30;69.50;;;;;;5032847;28;88702;-41
2023/05/13 01:17:34;;;;;;;;;;;12.30;69.60;;;;;;5031592;28;87158;-41
2023/05/13 01:20:02;;;;;;;;;;;12.20;69.50;;;;;;5031936;28;87094;-42
2023/05/13 01:22:28;;;;;;;;;;;12.20;69.50;;;;;;5028401;28;88983;-41
2023/05/13 01:24:53;;;;;;;;;;;12.20;69.60;;;;;;5034569;28;87959;-41
2023/05/13 01:27:19;;;;;;;;;;;12.20;69.50;;;;;;5033951;28;89874;-41
2023/05/13 01:29:45;;;;;;;;;;;12.30;69.50;;;;;;5032393;28;87771;-41
2023/05/13 01:32:11;;;;;;;;;;;12.30;69.50;;;;;;5031545;28;87037;-41
2023/05/13 01:34:38;;;;;;;;;;;12.20;69.50;;;;;;5028370;28;87407;-41
2023/05/13 01:37:04;;;;;;;;;;;12.20;69.50;;;;;;5031635;28;88058;-41
2023/05/13 01:39:30;;;;;;;;;;;12.20;69.50;;;;;;5032791;28;87219;-41
2023/05/13 01:41:56;;;;;;;;;;;12.20;69.50;;;;;;5033287;28;87472;-41
2023/05/13 01:44:21;;;;;;;;;;;12.20;69.50;;;;;;5031048;28;87660;-41
2023/05/13 01:46:49;;;;;;;;;;;12.20;69.60;;;;;;5036277;28;87130;-41
2023/05/13 01:49:15;;;;;;;;;;;12.20;69.50;;;;;;5032118;28;90522;-41
2023/05/13 01:51:40;;;;;;;;;;;12.20;69.50;;;;;;5031170;28;87235;-41
2023/05/13 01:54:06;;;;;;;;;;;12.20;69.50;;;;;;5032526;27;86967;-41
2023/05/13 01:56:31;;;;;;;;;;;12.20;69.50;;;;;;5033370;28;88031;-41
2023/05/13 01:58:57;;;;;;;;;;;12.10;69.50;;;;;;5031970;28;87157;-41
2023/05/13 02:01:23;;;;;;;;;;;12.10;69.60;;;;;;5031534;27;89248;-41
2023/05/13 02:03:48;;;;;;;;;;;12.10;69.60;;;;;;5032936;28;88181;-41
2023/05/13 02:06:14;;;;;;;;;;;12.20;69.60;;;;;;5033016;28;86780;-41
2023/05/13 02:08:39;;;;;;;;;;;12.20;69.60;;;;;;5033607;28;86960;-41
2023/05/13 02:11:05;;;;;;;;;;;12.10;69.60;;;;;;5033231;28;87622;-41
2023/05/13 02:13:30;;;;;;;;;;;12.10;69.50;;;;;;5032259;28;88040;-41
2023/05/13 02:15:56;;;;;;;;;;;12.10;69.60;;;;;;5030708;28;88175;-41
2023/05/13 02:18:22;;;;;;;;;;;12.10;69.60;;;;;;5032282;28;87212;-41
2023/05/13 02:20:47;;;;;;;;;;;12.10;69.50;;;;;;5033610;28;88023;-42
2023/05/13 02:23:13;;;;;;;;;;;12.10;69.50;;;;;;5030741;28;89583;-41
2023/05/13 02:25:40;;;;;;;;;;;12.10;69.60;;;;;;5031462;28;87174;-41
2023/05/13 02:28:06;;;;;;;;;;;12.10;69.70;;;;;;5034253;28;89926;-41
2023/05/13 02:30:32;;;;;;;;;;;12.10;69.70;;;;;;5032544;28;86378;-41
2023/05/13 02:32:57;;;;;;;;;;;12.10;69.60;;;;;;5030670;28;87960;-42
2023/05/13 02:35:28;;;;;;;;;;;12.10;69.70;;;;;;5032420;28;89290;-41
2023/05/13 02:37:54;;;;;;;;;;;12.00;69.60;;;;;;5032384;28;88038;-42
2023/05/13 02:40:20;;;;;;;;;;;12.00;69.60;;;;;;5030732;28;88269;-42
2023/05/13 02:42:45;;;;;;;;;;;12.10;69.60;;;;;;5031192;28;87804;-41
2023/05/13 02:45:11;;;;;;;;;;;12.10;69.70;;;;;;5032816;28;87678;-41
2023/05/13 02:47:36;;;;;;;;;;;12.10;69.70;;;;;;5031326;28;87330;-41
2023/05/13 02:50:04;;;;;;;;;;;12.10;69.60;;;;;;5034569;28;87853;-41
2023/05/13 02:52:30;;;;;;;;;;;12.10;69.60;;;;;;5031031;28;89215;-41
2023/05/13 02:54:55;;;;;;;;;;;12.00;69.60;;;;;;5035204;28;87409;-41
2023/05/13 02:57:21;;;;;;;;;;;12.00;69.60;;;;;;5036151;28;87496;-41
2023/05/13 02:59:46;;;;;;;;;;;12.00;69.60;;;;;;5035070;28;87000;-41
2023/05/13 03:02:12;;;;;;;;;;;12.00;69.70;;;;;;5032947;28;89208;-41
2023/05/13 03:04:40;;;;;;;;;;;12.00;69.70;;;;;;5036101;28;87251;-41
2023/05/13 03:07:05;;;;;;;;;;;12.00;69.70;;;;;;5035804;28;88739;-42
2023/05/13 03:09:31;;;;;;;;;;;12.00;69.60;;;;;;5033752;28;88135;-41
2023/05/13 03:11:57;;;;;;;;;;;12.00;69.70;;;;;;5038132;28;87039;-42
2023/05/13 03:14:22;;;;;;;;;;;12.00;69.60;;;;;;5035847;28;87218;-41
2023/05/13 03:16:48;;;;;;;;;;;12.00;69.60;;;;;;5033998;28;87147;-41
2023/05/13 03:19:13;;;;;;;;;;;12.00;69.70;;;;;;5035022;28;87477;-42
2023/05/13 03:21:39;;;;;;;;;;;12.00;69.70;;;;;;5035785;28;88216;-41
2023/05/13 03:24:05;;;;;;;;;;;11.90;69.70;;;;;;5034879;28;87168;-42
2023/05/13 03:26:30;;;;;;;;;;;12.00;69.70;;;;;;5032888;27;88919;-41
2023/05/13 03:28:56;;;;;;;;;;;11.90;69.70;;;;;;5035627;28;88206;-41
2023/05/13 03:31:21;;;;;;;;;;;11.90;69.70;;;;;;5035077;28;87505;-42
2023/05/13 03:33:47;;;;;;;;;;;11.90;69.70;;;;;;5036299;28;87803;-41
2023/05/13 03:36:13;;;;;;;;;;;11.90;69.70;;;;;;5034628;28;87528;-41
2023/05/13 03:38:38;;;;;;;;;;;11.90;69.70;;;;;;5035856;28;87559;-42
2023/05/13 03:41:04;;;;;;;;;;;11.90;69.70;;;;;;5033179;28;88084;-41
2023/05/13 03:43:29;;;;;;;;;;;11.90;69.70;;;;;;5034968;28;86482;-41
2023/05/13 03:45:55;;;;;;;;;;;11.90;69.80;;;;;;5035817;28;87116;-41
2023/05/13 03:48:20;;;;;;;;;;;11.90;69.70;;;;;;5033449;28;88313;-41
2023/05/13 03:50:46;;;;;;;;;;;11.90;69.70;;;;;;5032844;28;88077;-42
2023/05/13 03:53:11;;;;;;;;;;;11.90;69.70;;;;;;5035482;28;88212;-41
2023/05/13 03:55:37;;;;;;;;;;;11.90;69.70;;;;;;5037073;28;87992;-41
2023/05/13 03:58:13;;;;;;;;;;;11.90;69.70;;;;;;5032882;28;87023;-42
2023/05/13 04:00:38;;;;;;;;;;;11.90;69.60;;;;;;5033351;28;89563;-42
2023/05/13 04:03:04;;;;;;;;;;;11.90;69.70;;;;;;5034342;28;87001;-41
2023/05/13 04:05:31;;;;;;;;;;;11.90;69.70;;;;;;5033484;28;89155;-41
2023/05/13 04:07:56;;;;;;;;;;;11.90;69.80;;;;;;5033124;27;87178;-41
2023/05/13 04:10:22;;;;;;;;;;;11.90;69.80;;;;;;5034910;28;87090;-41
2023/05/13 04:12:47;;;;;;;;;;;11.80;69.60;;;;;;5034796;28;87016;-41
2023/05/13 04:15:13;;;;;;;;;;;11.90;69.80;;;;;;5031650;28;89030;-41
2023/05/13 04:17:39;;;;;;;;;;;11.80;69.70;;;;;;5036962;28;87109;-41
2023/05/13 04:20:05;;;;;;;;;;;11.80;69.70;;;;;;5034982;28;88206;-41
2023/05/13 04:22:30;;;;;;;;;;;11.80;69.70;;;;;;5033058;28;87142;-41
2023/05/13 04:24:56;;;;;;;;;;;11.90;69.70;;;;;;5033191;28;87411;-42
2023/05/13 04:27:22;;;;;;;;;;;11.80;69.60;;;;;;5034738;28;88028;-41
2023/05/13 04:29:48;;;;;;;;;;;11.80;69.60;;;;;;5033573;28;87148;-41
2023/05/13 04:32:16;;;;;;;;;;;11.90;69.60;;;;;;5032873;27;88769;-41
2023/05/13 04:34:42;;;;;;;;;;;11.80;69.60;;;;;;5033988;28;88336;-41
2023/05/13 04:37:07;;;;;;;;;;;11.80;69.70;;;;;;5037518;28;86917;-41
2023/05/13 04:39:33;;;;;;;;;;;11.80;69.70;;;;;;5031287;28;88883;-41
2023/05/13 04:41:58;;;;;;;;;;;11.80;69.80;;;;;;5033506;28;87130;-41
2023/05/13 04:44:24;;;;;;;;;;;11.80;69.70;;;;;;5034840;28;87408;-42
2023/05/13 04:46:49;;;;;;;;;;;11.80;69.70;;;;;;5032036;28;88012;-41
2023/05/13 04:49:15;;;;;;;;;;;11.80;69.90;;;;;;5032909;28;87587;-41
2023/05/13 04:51:40;;;;;;;;;;;11.80;69.80;;;;;;5035073;28;87398;-41
2023/05/13 04:54:06;;;;;;;;;;;11.80;69.70;;;;;;5032595;28;87916;-41
2023/05/13 04:56:31;;;;;;;;;;;11.80;69.70;;;;;;5032724;28;86677;-41
2023/05/13 04:58:57;;;;;;;;;;;11.80;69.70;;;;;;5036978;28;87087;-41
2023/05/13 05:01:22;;;;;;;;;;;11.80;69.60;;;;;;5033480;28;87147;-41
2023/05/13 05:03:48;;;;;;;;;;;11.80;69.60;;;;;;5031102;28;88030;-41
2023/05/13 05:06:13;;;;;;;;;;;11.80;69.60;;;;;;5033657;28;87987;-42
2023/05/13 05:08:39;;;;;;;;;;;11.80;69.60;;;;;;5034385;28;87104;-41
2023/05/13 05:11:05;;;;;;;;;;;11.80;69.60;;;;;;5031380;27;87372;-41
2023/05/13 05:13:30;;;;;;;;;;;11.80;69.60;;;;;;5032421;28;88091;-41
2023/05/13 05:15:56;;;;;;;;;;;11.80;69.60;;;;;;5034210;28;87282;-41
2023/05/13 05:18:21;;;;;;;;;;;11.80;69.50;;;;;;5032545;28;87037;-41
2023/05/13 05:20:47;;;;;;;;;;;11.80;69.50;;;;;;5034901;28;87435;-42
2023/05/13 05:23:12;;;;;;;;;;;11.80;69.50;;;;;;5034413;28;87180;-42
2023/05/13 05:25:38;;;;;;;;;;;11.80;69.40;;;;;;5032567;28;87954;-41
2023/05/13 05:28:06;;;;;;;;;;;11.80;69.40;;;;;;5030782;28;87992;-41
2023/05/13 05:30:38;;;;;;;;;;;11.80;69.40;;;;;;5033193;28;88308;-41
2023/05/13 05:33:05;;;;;;;;;;;11.80;69.50;;;;;;5033669;28;89445;-42
2023/05/13 05:35:30;;;;;;;;;;;11.80;69.40;;;;;;5032568;28;87003;-41
2023/05/13 05:37:56;;;;;;;;;;;11.80;69.40;;;;;;5031250;27;87201;-41
2023/05/13 05:40:21;;;;;;;;;;;11.80;69.30;;;;;;5032919;28;88097;-41
2023/05/13 05:42:47;;;;;;;;;;;11.80;69.30;;;;;;5036178;28;87057;-41
2023/05/13 05:45:12;;;;;;;;;;;11.80;69.30;;;;;;5031977;28;87476;-41
2023/05/13 05:47:38;;;;;;;;;;;11.80;69.30;;;;;;5032707;28;87144;-41
2023/05/13 05:50:03;;;;;;;;;;;11.80;69.40;;;;;;5033704;28;87432;-41
2023/05/13 05:52:29;;;;;;;;;;;11.80;69.40;;;;;;5030110;28;89183;-42
2023/05/13 05:54:54;;;;;;;;;;;11.80;69.40;;;;;;5031941;28;87161;-41
2023/05/13 05:57:20;;;;;;;;;;;11.80;69.50;;;;;;5033349;28;87199;-41
2023/05/13 05:59:45;;;;;;;;;;;11.80;69.50;;;;;;5031593;28;88096;-41
2023/05/13 06:02:11;;;;;;;;;;;11.80;69.50;;;;;;5031715;28;87064;-42
2023/05/13 06:04:36;;;;;;;;;;;11.80;69.60;;;;;;5035544;28;88182;-41
2023/05/13 06:07:02;;;;;;;;;;;11.80;69.60;;;;;;5032025;28;87160;-41
2023/05/13 06:09:27;;;;;;;;;;;11.70;69.60;;;;;;5031368;28;87758;-42
2023/05/13 06:11:53;;;;;;;;;;;11.80;69.70;;;;;;5032489;28;88148;-41
2023/05/13 06:14:19;;;;;;;;;;;11.70;69.60;;;;;;5032811;28;87261;-41
2023/05/13 06:16:45;;;;;;;;;;;11.70;69.60;;;;;;5030130;27;88957;-41
2023/05/13 06:19:11;;;;;;;;;;;11.80;69.60;;;;;;5031844;28;89333;-41
2023/05/13 06:21:36;;;;;;;;;;;11.80;69.70;;;;;;5033509;28;87306;-41
2023/05/13 06:24:02;;;;;;;;;;;11.80;69.70;;;;;;5033530;28;87438;-41
2023/05/13 06:26:28;;;;;;;;;;;11.80;69.70;;;;;;5030918;28;87184;-41
2023/05/13 06:28:54;;;;;;;;;;;11.70;69.60;;;;;;5033132;28;87938;-41
2023/05/13 06:31:19;;;;;;;;;;;11.80;69.70;;;;;;5031333;28;87146;-42
2023/05/13 06:33:45;;;;;;;;;;;11.70;69.60;;;;;;5031512;28;86506;-42
2023/05/13 06:36:10;;;;;;;;;;;11.70;69.60;;;;;;5033185;28;86903;-41
2023/05/13 06:38:36;;;;;;;;;;;11.70;69.70;;;;;;5031680;28;88152;-41
2023/05/13 06:41:01;;;;;;;;;;;11.70;69.70;;;;;;5029993;28;88404;-42
2023/05/13 06:43:27;;;;;;;;;;;11.70;69.60;;;;;;5032050;27;89199;-41
2023/05/13 06:45:52;;;;;;;;;;;11.70;69.60;;;;;;5035137;28;89705;-41
2023/05/13 06:48:18;;;;;;;;;;;11.80;69.70;;;;;;5030549;28;87522;-41
2023/05/13 06:50:43;;;;;;;;;;;11.70;69.70;;;;;;5031224;28;88154;-41
2023/05/13 06:53:12;;;;;;;;;;;11.70;69.70;;;;;;5029451;28;87164;-41
2023/05/13 06:55:40;;;;;;;;;;;11.70;69.70;;;;;;5031351;28;87391;-41
2023/05/13 06:58:09;;;;;;;;;;;11.80;69.70;;;;;;5032825;28;87287;-41
2023/05/13 07:00:38;;;;;;;;;;;11.80;69.80;;;;;;5031143;28;87079;-41
2023/05/13 07:03:04;;;;;;;;;;;11.80;69.70;;;;;;5030025;28;87436;-41
2023/05/13 07:05:30;;;;;;;;;;;11.80;69.80;;;;;;5030351;28;90802;-41
2023/05/13 07:07:56;;;;;;;;;;;11.80;69.80;;;;;;5035037;28;87187;-41
2023/05/13 07:10:21;;;;;;;;;;;11.80;69.90;;;;;;5029750;28;89742;-41
2023/05/13 07:12:47;;;;;;;;;;;11.80;70.00;;;;;;5031501;28;87210;-41
2023/05/13 07:15:12;;;;;;;;;;;11.80;69.80;;;;;;5032606;28;87996;-41
2023/05/13 07:17:38;;;;;;;;;;;11.80;69.90;;;;;;5030342;28;88163;-41
2023/05/13 07:20:04;;;;;;;;;;;11.80;70.00;;;;;;5030570;28;87043;-41
2023/05/13 07:22:29;;;;;;;;;;;11.80;70.00;;;;;;5032762;28;87087;-41
2023/05/13 07:24:55;;;;;;;;;;;11.80;70.00;;;;;;5031097;28;88127;-41
2023/05/13 07:27:21;;;;;;;;;;;11.80;70.00;;;;;;5029663;28;87549;-41
2023/05/13 07:29:47;;;;;;;;;;;11.70;70.10;;;;;;5033801;28;88588;-41
2023/05/13 07:32:12;;;;;;;;;;;11.70;70.20;;;;;;5032372;28;87044;-41
2023/05/13 07:34:38;;;;;;;;;;;11.80;70.20;;;;;;5029596;28;87253;-41
2023/05/13 07:37:03;;;;;;;;;;;11.80;70.20;;;;;;5031589;28;88016;-41
2023/05/13 07:39:29;;;;;;;;;;;11.80;70.20;;;;;;5035768;28;87681;-41
2023/05/13 07:41:54;;;;;;;;;;;11.80;70.00;;;;;;5033731;28;87479;-40
2023/05/13 07:44:20;;;;;;;;;;;11.80;70.20;;;;;;5033379;28;88045;-41
2023/05/13 07:46:46;;;;;;;;;;;11.80;70.20;;;;;;5036309;28;86431;-40
2023/05/13 07:49:12;;;;;;;;;;;11.80;70.20;;;;;;5034398;28;87052;-41
2023/05/13 07:51:37;;;;;;;;;;;11.80;70.00;;;;;;5035935;28;88135;-41
2023/05/13 07:54:03;;;;;;;;;;;11.90;70.00;;;;;;5034273;28;87939;-41
2023/05/13 07:56:29;;;;;;;;;;;11.90;70.00;;;;;;5034022;28;88173;-41
2023/05/13 07:58:54;;;;;;;;;;;11.90;69.80;;;;;;5032741;28;86978;-41
2023/05/13 08:01:20;;;;;;;;;;;11.90;69.80;;;;;;5034773;27;87492;-41
2023/05/13 08:03:45;;;;;;;;;;;11.90;69.90;;;;;;5034450;28;88126;-41
2023/05/13 08:06:11;;;;;;;;;;;11.90;69.90;;;;;;5032496;28;87235;-41
2023/05/13 08:08:36;;;;;;;;;;;12.00;70.00;;;;;;5033057;28;87400;-41
2023/05/13 08:11:02;;;;;;;;;;;12.00;70.10;;;;;;5035301;28;87243;-41
2023/05/13 08:13:27;;;;;;;;;;;12.00;70.00;;;;;;5036051;28;87141;-41
2023/05/13 08:15:53;;;;;;;;;;;12.00;70.00;;;;;;5032744;28;88289;-41
2023/05/13 08:18:18;;;;;;;;;;;12.00;70.10;;;;;;5034245;28;89001;-42
2023/05/13 08:20:44;;;;;;;;;;;12.00;70.00;;;;;;5034019;28;88575;-42
2023/05/13 08:23:09;;;;;;;;;;;12.00;69.90;;;;;;5032599;28;88089;-41
2023/05/13 08:25:35;;;;;;;;;;;12.00;70.00;;;;;;5033892;28;87063;-41
2023/05/13 08:28:02;;;;;;;;;;;12.10;69.90;;;;;;5034897;28;86930;-41
2023/05/13 08:30:27;;;;;;;;;;;12.10;70.10;;;;;;5031900;28;88314;-41
2023/05/13 08:32:53;;;;;;;;;;;12.10;70.20;;;;;;5036677;28;87089;-41
2023/05/13 08:35:18;;;;;;;;;;;12.10;70.00;;;;;;5034648;28;87336;-41
2023/05/13 08:37:44;;;;;;;;;;;12.10;69.90;;;;;;5032786;28;87139;-41
2023/05/13 08:40:10;;;;;;;;;;;12.10;69.90;;;;;;5032752;28;87457;-40
2023/05/13 08:42:37;;;;;;;;;;;12.10;69.80;;;;;;5034055;28;88920;-41
2023/05/13 08:45:06;;;;;;;;;;;12.20;70.10;;;;;;5033055;28;87597;-41
2023/05/13 08:47:32;;;;;;;;;;;12.10;69.90;;;;;;5031497;27;87460;-41
2023/05/13 08:49:58;;;;;;;;;;;12.20;70.00;;;;;;5032834;28;88132;-41
2023/05/13 08:52:23;;;;;;;;;;;12.20;69.90;;;;;;5034764;28;87055;-41
2023/05/13 08:54:49;;;;;;;;;;;12.20;70.20;;;;;;5035044;28;87328;-41
2023/05/13 08:57:15;;;;;;;;;;;12.20;70.30;;;;;;5032360;28;86951;-41
2023/05/13 08:59:40;;;;;;;;;;;12.20;70.20;;;;;;5034438;28;87406;-41
2023/05/13 09:02:07;;;;;;;;;;;12.20;70.30;;;;;;5032278;28;88054;-41
2023/05/13 09:04:36;;;;;;;;;;;12.20;70.10;;;;;;5031741;28;87829;-40
2023/05/13 09:07:05;;;;;;;;;;;12.30;70.30;;;;;;5032808;28;88096;-40
2023/05/13 09:09:30;;;;;;;;;;;12.30;70.20;;;;;;5033672;28;87968;-41
2023/05/13 09:11:56;;;;;;;;;;;12.30;70.00;;;;;;5032517;28;87050;-41
2023/05/13 09:14:25;;;;;;;;;;;12.30;70.30;;;;;;5032584;27;87206;-41
2023/05/13 09:16:54;;;;;;;;;;;12.30;70.20;;;;;;5031081;28;88196;-41
2023/05/13 09:19:22;;;;;;;;;;;12.40;70.30;;;;;;5031716;28;87538;-41
2023/05/13 09:21:47;;;;;;;;;;;12.30;70.30;;;;;;5033324;28;88947;-41
2023/05/13 09:24:17;;;;;;;;;;;12.30;70.40;;;;;;5033552;28;86487;-40
2023/05/13 09:26:43;;;;;;;;;;;12.30;70.50;;;;;;5031904;27;87257;-41
2023/05/13 09:29:18;;;;;;;;;;;12.30;70.50;;;;;;5032160;28;88073;-41
2023/05/13 09:31:44;;;;;;;;;;;12.30;70.50;;;;;;5027873;28;88667;-41
2023/05/13 09:34:11;;;;;;;;;;;12.30;70.50;;;;;;5031861;28;88351;-41
2023/05/13 09:36:37;;;;;;;;;;;12.40;70.60;;;;;;5033148;28;88418;-41
2023/05/13 09:39:02;;;;;;;;;;;12.40;70.50;;;;;;5035358;28;87128;-41
2023/05/13 09:41:31;;;;;;;;;;;12.40;70.50;;;;;;5030879;28;87995;-41
2023/05/13 09:43:57;;;;;;;;;;;12.50;70.60;;;;;;5032714;28;87085;-41
2023/05/13 09:46:23;;;;;;;;;;;12.50;70.60;;;;;;5033355;28;87064;-41
2023/05/13 09:48:54;;;;;;;;;;;12.40;70.60;;;;;;5027724;28;87182;-41
2023/05/13 09:51:26;;;;;;;;;;;12.40;70.60;;;;;;5030814;28;87462;-41
2023/05/13 09:53:53;;;;;;;;;;;12.40;70.70;;;;;;5032507;28;87418;-41
2023/05/13 09:56:21;;;;;;;;;;;12.40;70.90;;;;;;5032765;28;89026;-40
2023/05/13 09:58:52;;;;;;;;;;;12.50;70.90;;;;;;5031557;28;87446;-41
2023/05/13 10:01:19;;;;;;;;;;;12.50;70.80;;;;;;5032987;28;87029;-41
2023/05/13 10:03:44;;;;;;;;;;;12.50;70.90;;;;;;5031957;28;87103;-40
2023/05/13 10:06:10;;;;;;;;;;;12.50;70.80;;;;;;5033129;28;87414;-41
2023/05/13 10:08:37;;;;;;;;;;;12.50;70.80;;;;;;5030628;28;87857;-41
2023/05/13 10:11:04;;;;;;;;;;;12.50;71.00;;;;;;5031518;28;86999;-40
2023/05/13 10:13:30;;;;;;;;;;;12.50;70.60;;;;;;5034001;28;87443;-41
2023/05/13 10:15:56;;;;;;;;;;;12.50;71.10;;;;;;5031600;28;87783;-41
2023/05/13 10:18:22;;;;;;;;;;;12.50;71.00;;;;;;5030441;28;87142;-41
2023/05/13 10:20:54;;;;;;;;;;;12.60;71.40;;;;;;5031792;28;88518;-41
2023/05/13 10:23:21;;;;;;;;;;;12.50;71.00;;;;;;5036167;28;88010;-40
2023/05/13 10:25:47;;;;;;;;;;;12.50;71.20;;;;;;5031129;28;87494;-41
2023/05/13 10:28:13;;;;;;;;;;;12.50;71.10;;;;;;5030510;28;88035;-41
2023/05/13 10:30:39;;;;;;;;;;;12.50;71.50;;;;;;5032797;28;87133;-41
2023/05/13 10:33:05;;;;;;;;;;;12.50;71.30;;;;;;5031934;28;87557;-40
2023/05/13 10:35:32;;;;;;;;;;;12.50;71.10;;;;;;5030433;28;89054;-41
2023/05/13 10:38:08;;;;;;;;;;;12.60;71.60;;;;;;5032551;28;86311;-41
2023/05/13 10:40:52;;;;;;;;;;;12.50;71.40;;;;;;5026674;28;88077;-41
2023/05/13 10:43:19;;;;;;;;;;;12.40;71.80;;;;;;5029810;28;87965;-41
2023/05/13 10:45:49;;;;;;;;;;;12.30;72.10;;;;;;5030275;27;88202;-41
2023/05/13 10:48:15;;;;;;;;;;;12.30;72.40;;;;;;5026477;28;88077;-41
2023/05/13 10:50:54;;;;;;;;;;;12.30;72.50;;;;;;5031033;28;87204;-40
2023/05/13 10:53:24;;;;;;;;;;;12.30;72.60;;;;;;5029206;28;88879;-41
2023/05/13 10:55:54;;;;;;;;;;;12.30;72.50;;;;;;5029197;28;87913;-41
2023/05/13 10:58:21;;;;;;;;;;;12.40;72.60;;;;;;5030713;28;87891;-41
2023/05/13 11:00:46;;;;;;;;;;;12.30;72.50;;;;;;5032387;28;87942;-42
2023/05/13 11:03:18;;;;;;;;;;;12.40;72.70;;;;;;5031244;28;87355;-41
2023/05/13 11:05:46;;;;;;;;;;;12.40;72.60;;;;;;5032701;28;87170;-41
2023/05/13 11:08:31;;;;;;;;;;;12.50;72.30;;;;;;5030754;28;88015;-42
2023/05/13 11:10:56;;;;;;;;;;;12.40;72.50;;;;;;5030115;28;88848;-41
2023/05/13 11:13:23;;;;;;;;;;;12.50;72.60;;;;;;5033443;28;88339;-41
2023/05/13 11:15:52;;;;;;;;;;;12.60;72.00;;;;;;5034204;28;89837;-41
2023/05/13 11:18:19;;;;;;;;;;;12.50;72.40;;;;;;5035748;28;87503;-41
2023/05/13 11:20:55;;;;;;;;;;;12.60;72.00;;;;;;5034445;28;88783;-41
2023/05/13 11:23:21;;;;;;;;;;;12.50;72.10;;;;;;5029683;28;87886;-41
2023/05/13 11:26:06;;;;;;;;;;;12.60;72.30;;;;;;5034169;28;87372;-41
2023/05/13 11:28:50;;;;;;;;;;;12.70;71.60;;;;;;5037055;28;87493;-41
2023/05/13 11:31:16;;;;;;;;;;;12.80;71.60;;;;;;5034397;28;87149;-41
2023/05/13 11:34:01;;;;;;;;;;;12.80;71.50;;;;;;5033315;28;87039;-41
2023/05/13 11:36:29;;;;;;;;;;;12.70;71.80;;;;;;5029802;28;88853;-41
2023/05/13 11:39:03;;;;;;;;;;;12.80;71.70;;;;;;5032531;28;86970;-42
2023/05/13 11:41:32;;;;;;;;;;;12.80;71.60;;;;;;5034006;28;87429;-41
2023/05/13 11:43:58;;;;;;;;;;;12.80;71.60;;;;;;5035091;28;88055;-41
2023/05/13 11:46:24;;;;;;;;;;;12.80;71.80;;;;;;5034478;28;87123;-40
2023/05/13 11:48:50;;;;;;;;;;;12.80;72.00;;;;;;5033225;28;88983;-41
2023/05/13 11:51:18;;;;;;;;;;;12.80;71.70;;;;;;5037784;28;87887;-41
2023/05/13 11:53:44;;;;;;;;;;;12.90;71.60;;;;;;5035991;28;87679;-41
2023/05/13 11:56:10;;;;;;;;;;;12.90;71.80;;;;;;5032183;28;87950;-41
2023/05/13 11:58:35;;;;;;;;;;;12.90;71.60;;;;;;5033740;28;87097;-41
2023/05/13 12:01:01;;;;;;;;;;;13.00;71.60;;;;;;5035165;28;87988;-41
2023/05/13 12:03:26;;;;;;;;;;;13.00;71.50;;;;;;5033541;28;88199;-41
2023/05/13 12:06:02;;;;;;;;;;;13.00;71.50;;;;;;5032804;28;87226;-41
2023/05/13 12:08:27;;;;;;;;;;;13.00;71.40;;;;;;5030938;28;87232;-41
2023/05/13 12:10:53;;;;;;;;;;;13.10;71.40;;;;;;5032820;28;88304;-41
2023/05/13 12:13:19;;;;;;;;;;;13.10;71.40;;;;;;5036740;28;87669;-41
2023/05/13 12:15:44;;;;;;;;;;;13.00;71.60;;;;;;5034189;28;88183;-41
2023/05/13 12:18:10;;;;;;;;;;;13.10;71.40;;;;;;5033175;28;86573;-41
2023/05/13 12:20:37;;;;;;;;;;;13.00;71.40;;;;;;5034541;28;87096;-41
2023/05/13 12:23:03;;;;;;;;;;;13.10;71.40;;;;;;5033491;27;89456;-41
2023/05/13 12:25:37;;;;;;;;;;;13.10;71.30;;;;;;5032567;28;88024;-41
2023/05/13 12:28:17;;;;;;;;;;;13.20;71.40;;;;;;5032240;27;88242;-41
2023/05/13 12:30:47;;;;;;;;;;;13.10;71.40;;;;;;5031633;28;87955;-41
2023/05/13 12:33:14;;;;;;;;;;;13.10;71.60;;;;;;5033649;28;87116;-41
2023/05/13 12:35:39;;;;;;;;;;;13.10;71.50;;;;;;5037145;28;87134;-41
2023/05/13 12:38:05;;;;;;;;;;;13.20;71.40;;;;;;5032778;28;87227;-41
2023/05/13 12:40:31;;;;;;;;;;;13.20;71.40;;;;;;5032338;27;88764;-41
2023/05/13 12:42:57;;;;;;;;;;;13.30;71.40;;;;;;5034854;28;87239;-41
2023/05/13 12:45:25;;;;;;;;;;;13.30;71.20;;;;;;5033557;28;87479;-41
2023/05/13 12:47:51;;;;;;;;;;;13.30;71.40;;;;;;5032174;27;87782;-41
2023/05/13 12:50:17;;;;;;;;;;;13.30;71.60;;;;;;5032583;28;88892;-41
2023/05/13 12:52:42;;;;;;;;;;;13.30;71.50;;;;;;5034360;28;86969;-42
2023/05/13 12:55:08;;;;;;;;;;;13.30;71.40;;;;;;5035008;28;88157;-42
2023/05/13 12:57:34;;;;;;;;;;;13.40;71.30;;;;;;5032839;28;87194;-41
2023/05/13 12:59:59;;;;;;;;;;;13.30;71.50;;;;;;5034247;28;87606;-41
2023/05/13 13:02:25;;;;;;;;;;;13.30;71.60;;;;;;5032597;28;88069;-41
2023/05/13 13:04:50;;;;;;;;;;;13.30;71.70;;;;;;5031523;28;87570;-41
2023/05/13 13:07:16;;;;;;;;;;;13.40;71.60;;;;;;5034534;28;87386;-41
2023/05/13 13:09:41;;;;;;;;;;;13.30;71.90;;;;;;5032914;28;88209;-41
2023/05/13 13:12:07;;;;;;;;;;;13.30;72.00;;;;;;5031488;28;87199;-42
2023/05/13 13:14:32;;;;;;;;;;;13.30;72.20;;;;;;5033411;28;88520;-42
2023/05/13 13:16:58;;;;;;;;;;;13.30;72.30;;;;;;5036177;28;88240;-42
2023/05/13 13:19:23;;;;;;;;;;;13.30;72.50;;;;;;5031284;28;87133;-42
2023/05/13 13:21:49;;;;;;;;;;;13.30;72.40;;;;;;5032791;28;89578;-42
2023/05/13 13:24:14;;;;;;;;;;;13.30;72.60;;;;;;5033738;28;87293;-41
2023/05/13 13:26:40;;;;;;;;;;;13.40;72.40;;;;;;5031489;28;87492;-41
2023/05/13 13:29:05;;;;;;;;;;;13.30;72.60;;;;;;5032312;28;87746;-41
2023/05/13 13:31:31;;;;;;;;;;;13.30;72.70;;;;;;5034749;28;86427;-41
2023/05/13 13:34:02;;;;;;;;;;;13.30;72.80;;;;;;5031971;28;87008;-41
2023/05/13 13:36:28;;;;;;;;;;;13.30;72.70;;;;;;5030309;28;89802;-41
2023/05/13 13:38:54;;;;;;;;;;;13.30;72.60;;;;;;5035302;28;87996;-41
2023/05/13 13:41:24;;;;;;;;;;;13.40;72.70;;;;;;5033194;28;89280;-41
2023/05/13 13:43:49;;;;;;;;;;;13.40;72.90;;;;;;5028673;28;87134;-41
2023/05/13 13:46:15;;;;;;;;;;;13.40;72.80;;;;;;5032145;28;87377;-41
2023/05/13 13:48:40;;;;;;;;;;;13.40;72.80;;;;;;5033060;28;88017;-42
2023/05/13 13:51:06;;;;;;;;;;;13.50;72.60;;;;;;5032446;28;87493;-41
2023/05/13 13:53:31;;;;;;;;;;;13.50;72.50;;;;;;5031068;27;87269;-42
2023/05/13 13:55:57;;;;;;;;;;;13.50;72.40;;;;;;5033548;28;86880;-41
2023/05/13 13:58:22;;;;;;;;;;;13.50;72.50;;;;;;5032744;28;87095;-42
2023/05/13 14:00:48;;;;;;;;;;;13.50;72.50;;;;;;5034038;28;87152;-41
2023/05/13 14:03:14;;;;;;;;;;;13.50;72.40;;;;;;5032124;28;88118;-42
2023/05/13 14:05:39;;;;;;;;;;;13.60;72.30;;;;;;5033570;28;88271;-41
2023/05/13 14:08:05;;;;;;;;;;;13.60;72.20;;;;;;5030684;28;87991;-42
2023/05/13 14:10:30;;;;;;;;;;;13.60;72.30;;;;;;5031833;28;87262;-41
2023/05/13 14:12:56;;;;;;;;;;;13.60;72.40;;;;;;5033102;28;88596;-41